Time;durP1;ratioP1;P1;durP2;ratioP2;P2;SDS_P1;SDS_P2;PMS_P1;PMS_P2;Temp;Humidity;BMP_temperature;BMP_pressure;BME280_temperature;BME280_humidity;BME280_pressure;Samples;Min_cycle;Max_cycle;Signal;HPM_P1;HPM_P2
2022/09/14 00:00:47;;;;;;;8.53;7.30;;;23.60;64.70;;;;;;5043945;28;20472;-88
2022/09/14 00:03:17;;;;;;;8.67;6.83;;;23.60;64.70;;;;;;5044481;28;20503;-90
2022/09/14 00:05:44;;;;;;;8.63;6.17;;;23.50;65.20;;;;;;5064730;28;20444;-88
2022/09/14 00:08:11;;;;;;;7.63;6.30;;;23.50;65.40;;;;;;5057062;28;21000;-88
2022/09/14 00:10:40;;;;;;;9.23;6.47;;;23.50;65.10;;;;;;5042186;28;20545;-87
2022/09/14 00:13:08;;;;;;;6.87;6.07;;;23.50;64.80;;;;;;5029854;28;20465;-88
2022/09/14 00:15:36;;;;;;;5.90;5.00;;;23.50;64.90;;;;;;5061204;28;20461;-88
2022/09/14 00:18:04;;;;;;;5.33;4.83;;;23.50;64.70;;;;;;5045523;28;21013;-89
2022/09/14 00:20:32;;;;;;;5.80;5.20;;;23.50;64.40;;;;;;5044811;28;20461;-88
2022/09/14 00:22:59;;;;;;;6.27;5.27;;;23.50;64.30;;;;;;5057058;28;20471;-88
2022/09/14 00:25:26;;;;;;;7.70;5.30;;;23.50;63.90;;;;;;5043600;28;20464;-88
2022/09/14 00:27:54;;;;;;;5.67;5.10;;;23.50;64.10;;;;;;5047520;28;20448;-88
2022/09/14 00:30:22;;;;;;;6.80;6.20;;;23.50;64.30;;;;;;5058166;28;20477;-88
2022/09/14 00:32:49;;;;;;;7.57;5.13;;;23.40;64.30;;;;;;5059187;28;20539;-88
2022/09/14 00:35:17;;;;;;;6.70;5.50;;;23.30;63.50;;;;;;5025751;28;20452;-89
2022/09/14 00:37:48;;;;;;;7.13;6.17;;;23.30;64.00;;;;;;5041189;28;20533;-88
2022/09/14 00:40:15;;;;;;;10.77;6.77;;;23.30;64.50;;;;;;5041591;28;20477;-87
2022/09/14 00:42:42;;;;;;;6.27;5.67;;;23.30;64.80;;;;;;5031775;28;20477;-88
2022/09/14 00:45:17;;;;;;;5.73;5.23;;;23.40;64.80;;;;;;5065062;28;20542;-88
2022/09/14 00:47:47;;;;;;;6.40;5.83;;;23.40;64.80;;;;;;5016039;28;20452;-88
2022/09/14 00:50:14;;;;;;;7.63;5.73;;;23.40;64.70;;;;;;5027598;28;21034;-88
2022/09/14 00:52:46;;;;;;;7.00;6.00;;;23.40;65.60;;;;;;5035133;28;20846;-86
2022/09/14 00:55:16;;;;;;;9.60;5.60;;;23.40;64.80;;;;;;5048947;28;20952;-87
2022/09/14 00:57:46;;;;;;;6.40;5.77;;;23.30;65.20;;;;;;5049757;28;20457;-87
2022/09/14 01:00:17;;;;;;;8.37;5.70;;;23.30;65.40;;;;;;5032385;28;20518;-87
2022/09/14 01:02:44;;;;;;;7.00;5.30;;;23.20;65.30;;;;;;5065897;28;20481;-88
2022/09/14 01:05:13;;;;;;;6.63;6.00;;;23.10;65.60;;;;;;5048224;28;20464;-88
2022/09/14 01:07:57;;;;;;;6.63;5.20;;;23.00;66.20;;;;;;5052665;28;20535;-88
2022/09/14 01:10:34;;;;;;;6.20;5.60;;;23.00;66.50;;;;;;5049083;28;20480;-87
2022/09/14 01:13:21;;;;;;;7.23;6.53;;;22.80;66.80;;;;;;5049572;28;20453;-87
2022/09/14 01:15:56;;;;;;;7.17;5.13;;;22.70;67.00;;;;;;5021927;28;20456;-87
2022/09/14 01:18:28;;;;;;;7.20;6.00;;;22.80;67.00;;;;;;5028347;28;20825;-88
2022/09/14 01:21:00;;;;;;;10.77;6.40;;;22.90;66.40;;;;;;5065724;28;20475;-87
2022/09/14 01:23:36;;;;;;;7.93;7.13;;;23.00;66.00;;;;;;5047771;28;20976;-87
2022/09/14 01:26:48;;;;;;;7.70;6.60;;;23.10;66.20;;;;;;5046689;28;20444;-87
2022/09/14 01:29:19;;;;;;;9.20;7.00;;;23.20;66.10;;;;;;5026909;28;20472;-85
2022/09/14 01:31:52;;;;;;;6.00;5.40;;;23.20;65.80;;;;;;5063696;28;20499;-87
2022/09/14 01:34:27;;;;;;;6.03;5.43;;;23.20;65.30;;;;;;5046948;28;20467;-87
2022/09/14 01:36:59;;;;;;;7.40;6.33;;;23.10;64.60;;;;;;5063867;28;20452;-87
2022/09/14 01:39:29;;;;;;;9.10;6.27;;;23.00;64.90;;;;;;5032971;28;21006;-87
2022/09/14 01:41:58;;;;;;;6.67;5.60;;;23.00;65.30;;;;;;5036801;28;20886;-88
2022/09/14 01:44:32;;;;;;;11.73;7.07;;;22.90;66.10;;;;;;5026402;28;21008;-87
2022/09/14 01:47:05;;;;;;;7.10;5.87;;;22.90;67.00;;;;;;5046707;28;20444;-87
2022/09/14 01:49:38;;;;;;;10.90;6.00;;;22.80;66.90;;;;;;5060718;28;20485;-87
2022/09/14 01:52:09;;;;;;;6.37;5.77;;;22.70;67.30;;;;;;5062247;28;20465;-86
2022/09/14 01:54:42;;;;;;;15.00;6.10;;;22.90;67.10;;;;;;5062009;28;20437;-87
2022/09/14 01:57:15;;;;;;;12.00;6.80;;;23.00;66.70;;;;;;5045387;28;20830;-86
2022/09/14 01:59:45;;;;;;;8.00;6.40;;;23.00;66.30;;;;;;5047105;28;20464;-87
2022/09/14 02:02:16;;;;;;;9.20;5.90;;;23.00;66.60;;;;;;5062388;28;20575;-86
2022/09/14 02:04:48;;;;;;;7.50;6.40;;;22.90;66.90;;;;;;5059325;28;20917;-86
2022/09/14 02:07:16;;;;;;;10.97;7.77;;;23.00;66.70;;;;;;5045046;28;20440;-85
2022/09/14 02:09:44;;;;;;;11.50;7.27;;;23.00;66.40;;;;;;5048022;28;20894;-86
2022/09/14 02:12:11;;;;;;;12.57;6.30;;;23.10;66.40;;;;;;5061592;28;20452;-87
2022/09/14 02:14:38;;;;;;;12.47;6.80;;;23.20;66.40;;;;;;5046056;28;20463;-87
2022/09/14 02:17:07;;;;;;;7.07;6.10;;;23.10;66.30;;;;;;5045811;28;20449;-87
2022/09/14 02:19:40;;;;;;;8.00;5.97;;;23.10;66.20;;;;;;5036932;28;20547;-86
2022/09/14 02:22:07;;;;;;;12.17;6.90;;;23.00;66.10;;;;;;5036005;28;20448;-86
2022/09/14 02:24:35;;;;;;;6.60;5.90;;;23.00;66.40;;;;;;5060482;28;20444;-86
2022/09/14 02:27:03;;;;;;;10.63;5.87;;;23.00;66.20;;;;;;5031318;28;20918;-85
2022/09/14 02:29:33;;;;;;;8.13;6.00;;;22.90;66.20;;;;;;5044672;28;20468;-87
2022/09/14 02:32:11;;;;;;;8.77;6.00;;;22.90;66.20;;;;;;5047378;28;20460;-85
2022/09/14 02:34:47;;;;;;;9.23;6.10;;;22.90;65.90;;;;;;5042870;28;20458;-86
2022/09/14 02:37:18;;;;;;;10.47;7.00;;;22.90;65.80;;;;;;5064010;28;20456;-86
2022/09/14 02:39:50;;;;;;;8.90;6.70;;;22.90;66.00;;;;;;5030325;28;20510;-85
2022/09/14 02:42:26;;;;;;;6.27;5.67;;;23.00;66.10;;;;;;5035585;28;20501;-85
2022/09/14 02:45:11;;;;;;;10.27;7.10;;;23.00;66.10;;;;;;5063511;28;20440;-88
2022/09/14 02:47:54;;;;;;;7.37;6.40;;;23.00;66.20;;;;;;5062798;28;20452;-86
2022/09/14 02:50:26;;;;;;;7.60;6.43;;;23.10;66.30;;;;;;5057534;28;21052;-85
2022/09/14 02:52:59;;;;;;;7.00;5.90;;;23.10;66.00;;;;;;5063757;28;21379;-84
2022/09/14 02:55:31;;;;;;;6.33;5.73;;;23.10;66.10;;;;;;5061076;28;20453;-84
2022/09/14 02:58:04;;;;;;;11.50;6.47;;;23.10;66.20;;;;;;5046090;28;20448;-84
2022/09/14 03:00:35;;;;;;;7.57;6.13;;;23.10;66.30;;;;;;5045052;28;20469;-86
2022/09/14 03:03:03;;;;;;;6.77;6.07;;;23.00;66.50;;;;;;5027084;28;20475;-83
2022/09/14 03:05:31;;;;;;;7.93;5.47;;;22.90;66.60;;;;;;5062227;28;20522;-85
2022/09/14 03:07:59;;;;;;;7.30;5.77;;;22.90;66.50;;;;;;5044749;28;20880;-84
2022/09/14 03:10:26;;;;;;;7.70;6.87;;;23.00;66.10;;;;;;5061717;28;20464;-84
2022/09/14 03:12:53;;;;;;;6.07;5.43;;;22.90;65.70;;;;;;5041396;28;20448;-87
2022/09/14 03:15:20;;;;;;;6.23;5.17;;;22.90;66.30;;;;;;5041083;28;20525;-85
2022/09/14 03:17:47;;;;;;;7.93;7.13;;;22.80;66.80;;;;;;5063786;28;20451;-86
2022/09/14 03:20:18;;;;;;;6.53;5.93;;;22.80;67.00;;;;;;5063309;28;20465;-85
2022/09/14 03:22:45;;;;;;;7.80;6.37;;;22.90;66.80;;;;;;5063827;28;20831;-85
2022/09/14 03:25:12;;;;;;;8.17;5.83;;;22.90;66.90;;;;;;5062266;28;20447;-84
2022/09/14 03:27:39;;;;;;;6.77;5.73;;;23.00;66.90;;;;;;5060255;28;20452;-86
2022/09/14 03:30:07;;;;;;;8.30;6.13;;;23.00;66.90;;;;;;5061954;28;20475;-84
2022/09/14 03:32:35;;;;;;;9.00;6.43;;;23.10;66.80;;;;;;5047008;28;20457;-85
2022/09/14 03:35:02;;;;;;;10.70;6.80;;;23.00;66.60;;;;;;5060335;28;20985;-85
2022/09/14 03:37:30;;;;;;;7.20;6.50;;;23.00;66.70;;;;;;5061741;28;20872;-86
2022/09/14 03:39:57;;;;;;;7.20;6.50;;;23.00;66.60;;;;;;5060578;28;20468;-84
2022/09/14 03:42:24;;;;;;;9.40;6.27;;;23.00;66.60;;;;;;5027540;28;20441;-85
2022/09/14 03:44:51;;;;;;;7.20;6.50;;;23.00;66.50;;;;;;5062643;28;20488;-85
2022/09/14 03:47:18;;;;;;;8.47;6.80;;;23.00;66.60;;;;;;5061522;28;20552;-83
2022/09/14 03:49:45;;;;;;;7.00;6.30;;;23.00;66.60;;;;;;5064114;28;20461;-84
2022/09/14 03:52:12;;;;;;;6.90;6.20;;;23.00;66.40;;;;;;5029059;28;20455;-86
2022/09/14 03:54:40;;;;;;;6.30;5.20;;;23.00;66.30;;;;;;5063323;28;20440;-85
2022/09/14 03:57:07;;;;;;;5.73;5.07;;;23.00;66.10;;;;;;5041609;28;20470;-83
2022/09/14 03:59:34;;;;;;;10.40;7.10;;;22.90;66.80;;;;;;5061332;28;20465;-84
2022/09/14 04:02:01;;;;;;;9.63;6.77;;;22.50;68.30;;;;;;5061658;28;20976;-84
2022/09/14 04:04:28;;;;;;;6.97;5.90;;;22.60;68.00;;;;;;5041681;28;20485;-84
2022/09/14 04:06:55;;;;;;;6.57;5.70;;;22.70;67.70;;;;;;5015704;28;20543;-84
2022/09/14 04:09:22;;;;;;;8.47;7.67;;;22.80;67.40;;;;;;5061286;28;20475;-84
2022/09/14 04:11:51;;;;;;;10.10;8.33;;;22.90;67.30;;;;;;5048337;28;20452;-84
2022/09/14 04:14:18;;;;;;;6.73;6.03;;;22.90;67.10;;;;;;5065335;28;20531;-86
2022/09/14 04:16:45;;;;;;;7.30;5.50;;;22.90;66.80;;;;;;5046318;28;20448;-84
2022/09/14 04:19:12;;;;;;;5.70;5.10;;;22.90;66.80;;;;;;5025919;28;20459;-84
2022/09/14 04:21:39;;;;;;;12.17;8.80;;;22.90;66.70;;;;;;5053341;28;20453;-84
2022/09/14 04:24:06;;;;;;;10.27;8.97;;;22.90;66.70;;;;;;5061789;28;20499;-84
2022/09/14 04:26:33;;;;;;;8.47;7.57;;;22.90;66.50;;;;;;5039389;28;20460;-85
2022/09/14 04:29:02;;;;;;;11.70;8.03;;;22.90;66.30;;;;;;5041858;28;20456;-84
2022/09/14 04:31:29;;;;;;;8.90;8.00;;;23.00;66.50;;;;;;5026846;28;20453;-84
2022/09/14 04:33:56;;;;;;;7.33;6.33;;;23.00;66.50;;;;;;5045830;28;20823;-85
2022/09/14 04:36:27;;;;;;;7.80;6.73;;;23.00;66.50;;;;;;5027061;28;20441;-84
2022/09/14 04:38:55;;;;;;;8.27;7.40;;;23.00;66.40;;;;;;5026053;28;20512;-84
2022/09/14 04:41:22;;;;;;;7.80;7.00;;;23.00;66.50;;;;;;5063229;28;20441;-83
2022/09/14 04:43:51;;;;;;;7.90;7.00;;;23.00;66.40;;;;;;5061696;28;20476;-84
2022/09/14 04:46:22;;;;;;;10.03;6.60;;;23.00;66.30;;;;;;5041697;28;20452;-84
2022/09/14 04:48:49;;;;;;;7.50;6.10;;;23.00;66.20;;;;;;5061155;28;20491;-83
2022/09/14 04:51:18;;;;;;;9.57;6.90;;;23.00;66.10;;;;;;5014928;28;20469;-83
2022/09/14 04:53:48;;;;;;;7.80;5.90;;;23.00;66.10;;;;;;5031231;28;20877;-84
2022/09/14 04:56:16;;;;;;;6.70;6.10;;;23.00;66.20;;;;;;5057806;28;20503;-83
2022/09/14 04:58:44;;;;;;;7.90;7.10;;;23.00;66.30;;;;;;5042688;28;20448;-84
2022/09/14 05:01:13;;;;;;;8.17;6.67;;;22.90;66.40;;;;;;5025443;28;20467;-84
2022/09/14 05:03:42;;;;;;;8.77;6.30;;;22.90;66.60;;;;;;5044483;28;20480;-85
2022/09/14 05:06:11;;;;;;;10.13;7.10;;;22.90;66.70;;;;;;5060434;28;20994;-85
2022/09/14 05:08:38;;;;;;;9.00;6.70;;;22.90;66.70;;;;;;5043446;28;20452;-83
2022/09/14 05:11:07;;;;;;;11.67;7.37;;;23.00;66.60;;;;;;5026002;28;20505;-84
2022/09/14 05:13:34;;;;;;;8.00;7.20;;;23.00;66.40;;;;;;5060681;28;20895;-84
2022/09/14 05:16:06;;;;;;;9.77;8.30;;;22.90;66.30;;;;;;5025013;28;20541;-85
2022/09/14 05:18:33;;;;;;;7.97;7.17;;;22.90;66.40;;;;;;5041870;28;20545;-84
2022/09/14 05:21:03;;;;;;;11.43;9.10;;;22.80;66.70;;;;;;5058794;28;20974;-83
2022/09/14 05:23:30;;;;;;;8.63;7.80;;;22.80;66.90;;;;;;5059488;28;20480;-82
2022/09/14 05:25:57;;;;;;;10.23;8.43;;;22.90;67.00;;;;;;5042481;28;20440;-85
2022/09/14 05:28:24;;;;;;;10.80;8.73;;;22.90;67.10;;;;;;5040668;28;20460;-84
2022/09/14 05:30:51;;;;;;;8.83;6.90;;;22.90;67.00;;;;;;5061431;28;20465;-84
2022/09/14 05:33:19;;;;;;;13.20;8.37;;;23.00;66.80;;;;;;5047301;28;20453;-84
2022/09/14 05:35:46;;;;;;;13.97;8.70;;;23.00;66.60;;;;;;5028879;28;20453;-84
2022/09/14 05:38:15;;;;;;;11.50;7.63;;;23.00;66.50;;;;;;5059219;28;20464;-84
2022/09/14 05:40:42;;;;;;;11.23;8.90;;;23.00;66.30;;;;;;5042926;28;20538;-84
2022/09/14 05:43:09;;;;;;;10.50;7.80;;;23.00;66.00;;;;;;5047159;28;20823;-84
2022/09/14 05:45:36;;;;;;;11.23;8.87;;;23.00;66.90;;;;;;5061571;28;20453;-84
2022/09/14 05:48:04;;;;;;;13.13;8.87;;;23.00;66.00;;;;;;5044411;28;20551;-84
2022/09/14 05:50:31;;;;;;;14.53;10.63;;;23.00;66.20;;;;;;5016073;28;20484;-83
2022/09/14 05:52:58;;;;;;;16.53;11.20;;;23.10;66.30;;;;;;5061743;28;20805;-85
2022/09/14 05:55:27;;;;;;;11.87;9.43;;;23.00;66.40;;;;;;5031058;28;20588;-84
2022/09/14 05:57:54;;;;;;;12.83;7.87;;;23.00;66.40;;;;;;5037464;28;20463;-84
2022/09/14 06:00:21;;;;;;;11.33;8.20;;;23.00;66.20;;;;;;5026215;28;20508;-85
2022/09/14 06:02:49;;;;;;;16.37;8.67;;;23.00;66.20;;;;;;5045407;28;20459;-84
2022/09/14 06:05:16;;;;;;;9.00;8.07;;;23.10;66.40;;;;;;5043555;28;20482;-84
2022/09/14 06:07:44;;;;;;;9.50;8.50;;;23.00;66.30;;;;;;5034415;28;20454;-85
2022/09/14 06:10:12;;;;;;;10.10;9.00;;;23.10;66.30;;;;;;5044354;28;20583;-84
2022/09/14 06:12:40;;;;;;;12.73;8.07;;;23.10;66.30;;;;;;5048198;28;20446;-84
2022/09/14 06:15:08;;;;;;;9.63;8.63;;;23.00;66.30;;;;;;5045376;28;20974;-84
2022/09/14 06:17:35;;;;;;;10.30;8.87;;;23.00;66.40;;;;;;5065960;28;20453;-84
2022/09/14 06:20:02;;;;;;;8.80;7.90;;;23.00;66.40;;;;;;5062827;28;20453;-85
2022/09/14 06:22:31;;;;;;;9.33;8.40;;;23.00;66.50;;;;;;5064758;28;20545;-84
2022/09/14 06:24:58;;;;;;;14.70;8.30;;;22.90;66.70;;;;;;5046243;28;20475;-83
2022/09/14 06:27:26;;;;;;;9.13;8.13;;;22.90;66.70;;;;;;5047661;28;20837;-84
2022/09/14 06:29:54;;;;;;;9.43;8.43;;;22.90;66.60;;;;;;5046369;28;20565;-83
2022/09/14 06:32:22;;;;;;;9.33;8.43;;;22.90;66.70;;;;;;5049422;28;20459;-84
2022/09/14 06:34:49;;;;;;;9.93;8.33;;;22.90;66.60;;;;;;5044069;28;20523;-84
2022/09/14 06:37:16;;;;;;;8.57;7.20;;;22.90;66.50;;;;;;5065409;28;20452;-84
2022/09/14 06:39:43;;;;;;;8.93;8.03;;;22.90;66.50;;;;;;5063431;28;20980;-84
2022/09/14 06:42:10;;;;;;;8.90;8.00;;;22.90;66.50;;;;;;5043080;28;20444;-84
2022/09/14 06:44:39;;;;;;;10.70;8.50;;;22.90;66.60;;;;;;5044600;28;20475;-84
2022/09/14 06:47:07;;;;;;;9.37;8.20;;;22.90;66.60;;;;;;5025990;28;20443;-84
2022/09/14 06:49:34;;;;;;;9.60;8.30;;;22.90;66.50;;;;;;5063965;28;20471;-85
2022/09/14 06:52:01;;;;;;;9.60;8.10;;;22.90;66.50;;;;;;5041737;28;21146;-84
2022/09/14 06:54:29;;;;;;;10.67;8.43;;;22.90;66.60;;;;;;5039921;28;21459;-85
2022/09/14 06:56:55;;;;;;;9.90;8.53;;;22.90;66.80;;;;;;5039217;28;20475;-84
2022/09/14 06:59:22;;;;;;;10.30;8.00;;;23.00;66.70;;;;;;5061584;28;20892;-84
2022/09/14 07:01:50;;;;;;;12.27;8.90;;;23.00;66.70;;;;;;5047214;28;20494;-84
2022/09/14 07:04:18;;;;;;;9.37;8.20;;;23.00;66.80;;;;;;5059698;28;20505;-85
2022/09/14 07:06:48;;;;;;;11.13;9.17;;;23.00;66.90;;;;;;5063741;28;20826;-84
2022/09/14 07:09:16;;;;;;;9.30;8.40;;;23.00;66.60;;;;;;5031558;28;20528;-82
2022/09/14 07:11:43;;;;;;;8.83;7.87;;;23.00;66.70;;;;;;5040787;28;20804;-84
2022/09/14 07:14:11;;;;;;;11.40;8.77;;;23.10;66.50;;;;;;5062483;28;20452;-85
2022/09/14 07:16:40;;;;;;;11.70;9.60;;;23.00;66.50;;;;;;5032984;28;20464;-84
2022/09/14 07:19:09;;;;;;;10.77;9.50;;;23.00;66.70;;;;;;5063354;28;20457;-83
2022/09/14 07:21:37;;;;;;;10.13;8.03;;;23.00;66.70;;;;;;5057049;28;21315;-84
2022/09/14 07:24:05;;;;;;;10.73;8.57;;;23.10;66.80;;;;;;5040957;28;20474;-84
2022/09/14 07:26:34;;;;;;;9.43;8.47;;;23.10;66.70;;;;;;5043648;28;20452;-83
2022/09/14 07:29:04;;;;;;;14.67;9.50;;;23.10;66.60;;;;;;5042233;28;20449;-84
2022/09/14 07:31:32;;;;;;;11.23;9.30;;;23.10;66.70;;;;;;5043937;28;20491;-85
2022/09/14 07:34:02;;;;;;;11.13;8.67;;;23.20;66.70;;;;;;5060521;28;20470;-85
2022/09/14 07:36:30;;;;;;;10.13;8.67;;;23.20;66.50;;;;;;5045450;28;20452;-85
2022/09/14 07:38:58;;;;;;;12.77;8.70;;;23.20;66.60;;;;;;5064940;28;20457;-83
2022/09/14 07:41:27;;;;;;;11.67;8.70;;;23.20;66.70;;;;;;5043231;28;20986;-85
2022/09/14 07:43:56;;;;;;;17.43;8.70;;;23.20;66.70;;;;;;5061273;28;20444;-82
2022/09/14 07:46:23;;;;;;;9.00;8.10;;;23.10;66.90;;;;;;5062421;28;20944;-84
2022/09/14 07:48:55;;;;;;;10.00;8.20;;;23.10;67.00;;;;;;5029249;28;20444;-83
2022/09/14 07:51:22;;;;;;;10.40;8.03;;;23.10;67.20;;;;;;5024695;28;20863;-84
2022/09/14 07:53:49;;;;;;;10.37;9.20;;;23.00;67.20;;;;;;5032340;28;20444;-85
2022/09/14 07:56:18;;;;;;;12.13;8.27;;;23.00;67.60;;;;;;5058237;28;20458;-83
2022/09/14 07:58:45;;;;;;;10.00;8.40;;;23.00;67.50;;;;;;5030848;28;20445;-85
2022/09/14 08:01:16;;;;;;;11.27;9.30;;;23.10;67.40;;;;;;5045134;28;21003;-84
2022/09/14 08:03:44;;;;;;;12.57;8.73;;;23.10;68.00;;;;;;5063028;28;20441;-85
2022/09/14 08:06:13;;;;;;;11.80;9.53;;;23.00;67.50;;;;;;5059086;28;21202;-85
2022/09/14 08:08:42;;;;;;;12.77;9.03;;;23.20;67.60;;;;;;5044672;28;20452;-85
2022/09/14 08:11:11;;;;;;;10.27;8.67;;;23.30;67.40;;;;;;5062030;28;20823;-84
2022/09/14 08:13:41;;;;;;;9.70;8.23;;;23.50;67.10;;;;;;5043869;28;20467;-85
2022/09/14 08:16:09;;;;;;;11.50;9.27;;;23.60;66.90;;;;;;5028062;28;20447;-85
2022/09/14 08:18:37;;;;;;;9.30;8.47;;;23.70;66.50;;;;;;5044763;28;20988;-84
2022/09/14 08:21:05;;;;;;;9.97;8.23;;;23.70;66.30;;;;;;5041224;28;20762;-84
2022/09/14 08:23:32;;;;;;;12.70;7.70;;;23.70;66.30;;;;;;5045517;28;20453;-85
2022/09/14 08:26:03;;;;;;;11.43;10.00;;;23.80;64.60;;;;;;5043916;28;20464;-85
2022/09/14 08:28:30;;;;;;;8.80;7.33;;;23.80;65.30;;;;;;5030902;28;20468;-85
2022/09/14 08:31:04;;;;;;;9.30;6.40;;;23.90;65.20;;;;;;5042960;28;20839;-83
2022/09/14 08:33:32;;;;;;;7.70;6.80;;;23.70;65.10;;;;;;5043709;28;20463;-85
2022/09/14 08:35:59;;;;;;;9.53;7.50;;;23.70;65.40;;;;;;5045774;28;20453;-84
2022/09/14 08:38:26;;;;;;;9.77;8.17;;;23.70;65.50;;;;;;5052706;28;20460;-84
2022/09/14 08:40:54;;;;;;;8.83;7.40;;;23.70;65.60;;;;;;5058922;28;20476;-85
2022/09/14 08:43:24;;;;;;;9.23;7.53;;;23.60;65.20;;;;;;5061328;28;21114;-84
2022/09/14 08:45:54;;;;;;;8.57;7.37;;;23.70;65.20;;;;;;5042187;28;20465;-84
2022/09/14 08:48:32;;;;;;;7.80;7.00;;;23.80;65.40;;;;;;5060469;28;20457;-86
2022/09/14 08:50:59;;;;;;;10.93;7.43;;;23.80;65.60;;;;;;5057331;28;20472;-85
2022/09/14 08:53:27;;;;;;;7.83;6.60;;;23.80;65.70;;;;;;5061307;28;20451;-85
2022/09/14 08:55:59;;;;;;;9.60;8.57;;;23.70;65.70;;;;;;5028042;28;20875;-85
2022/09/14 08:58:36;;;;;;;9.70;8.37;;;23.60;66.40;;;;;;5059490;28;21064;-85
2022/09/14 09:01:11;;;;;;;9.10;7.80;;;23.70;66.80;;;;;;5062079;28;20466;-85
2022/09/14 09:04:07;;;;;;;8.80;7.90;;;23.80;66.60;;;;;;5043969;28;20508;-84
2022/09/14 09:06:41;;;;;;;8.10;7.10;;;23.80;67.00;;;;;;5056256;28;20491;-85
2022/09/14 09:09:18;;;;;;;8.60;7.33;;;23.80;66.60;;;;;;5059027;28;20460;-85
2022/09/14 09:11:49;;;;;;;8.87;7.30;;;23.80;66.70;;;;;;5063682;28;21012;-85
2022/09/14 09:14:20;;;;;;;9.60;7.40;;;23.90;66.50;;;;;;5022200;28;20964;-85
2022/09/14 09:16:51;;;;;;;7.60;6.90;;;23.90;67.00;;;;;;5065433;28;20452;-85
2022/09/14 09:19:24;;;;;;;8.63;7.73;;;23.90;66.80;;;;;;5044971;28;20457;-84
2022/09/14 09:21:52;;;;;;;7.90;6.70;;;24.00;67.20;;;;;;5065626;28;20450;-85
2022/09/14 09:24:27;;;;;;;6.33;5.80;;;24.10;67.00;;;;;;5065341;28;20896;-84
2022/09/14 09:26:54;;;;;;;7.43;4.90;;;24.10;66.80;;;;;;5026973;28;20456;-85
2022/09/14 09:29:21;;;;;;;5.70;5.17;;;24.20;65.70;;;;;;5061570;28;20479;-85
2022/09/14 09:32:11;;;;;;;6.33;4.60;;;24.20;66.60;;;;;;5021049;28;21167;-84
2022/09/14 09:34:58;;;;;;;5.20;4.63;;;24.10;65.90;;;;;;5061940;28;20441;-84
2022/09/14 09:37:42;;;;;;;5.60;5.10;;;23.90;66.50;;;;;;5006013;28;20451;-86
2022/09/14 09:43:08;;;;;;;6.37;4.50;;;24.10;66.90;;;;;;5082747;28;20456;-86
2022/09/14 09:45:52;;;;;;;5.67;4.97;;;24.30;66.50;;;;;;5082705;28;21348;-86
2022/09/14 09:48:22;;;;;;;5.70;5.30;;;24.40;66.20;;;;;;5084680;28;20442;-87
2022/09/14 09:51:02;;;;;;;5.67;5.10;;;24.50;66.10;;;;;;5028839;28;21009;-85
2022/09/14 09:53:29;;;;;;;5.30;4.80;;;24.50;66.10;;;;;;5037008;28;20449;-84
2022/09/14 09:55:57;;;;;;;5.57;4.90;;;24.50;65.50;;;;;;5034524;28;20492;-86
2022/09/14 09:58:30;;;;;;;6.03;5.43;;;24.50;66.30;;;;;;5020071;28;20448;-85
2022/09/14 10:00:59;;;;;;;4.50;4.10;;;24.40;66.60;;;;;;5049834;28;21179;-85
2022/09/14 10:03:29;;;;;;;5.40;4.30;;;24.40;67.10;;;;;;5041189;28;20482;-86
2022/09/14 10:06:03;;;;;;;4.40;4.00;;;24.50;66.80;;;;;;5052585;28;20481;-85
2022/09/14 10:08:33;;;;;;;3.70;3.40;;;24.60;66.40;;;;;;5033038;28;20460;-86
2022/09/14 10:11:02;;;;;;;3.57;3.27;;;24.70;66.80;;;;;;5019366;28;20933;-85
2022/09/14 10:13:32;;;;;;;3.73;3.43;;;24.70;66.80;;;;;;5037680;28;20449;-86
2022/09/14 10:16:07;;;;;;;4.30;4.00;;;24.60;65.20;;;;;;5032590;28;20554;-85
2022/09/14 10:18:34;;;;;;;4.20;3.80;;;24.50;65.80;;;;;;5018270;28;20449;-87
2022/09/14 10:21:09;;;;;;;4.10;3.30;;;24.60;66.30;;;;;;5051991;28;20464;-86
2022/09/14 10:23:37;;;;;;;4.80;3.60;;;24.70;66.00;;;;;;5036087;28;20449;-86
2022/09/14 10:26:25;;;;;;;3.90;3.60;;;24.70;66.60;;;;;;5035572;28;20478;-86
2022/09/14 10:28:52;;;;;;;4.00;3.70;;;24.70;66.00;;;;;;5042256;28;21054;-86
2022/09/14 10:31:29;;;;;;;3.97;3.67;;;24.70;65.40;;;;;;5053502;28;20476;-86
2022/09/14 10:33:58;;;;;;;4.07;3.77;;;24.50;66.00;;;;;;5022553;28;20450;-86
2022/09/14 10:36:29;;;;;;;4.27;3.87;;;24.60;65.80;;;;;;5033868;28;20438;-86
2022/09/14 10:39:02;;;;;;;4.97;4.47;;;24.60;65.80;;;;;;5021401;28;20922;-86
2022/09/14 10:41:35;;;;;;;3.80;3.50;;;24.70;66.00;;;;;;5031759;28;20472;-86
2022/09/14 10:44:35;;;;;;;4.83;4.40;;;24.80;65.00;;;;;;5017329;28;21031;-87
2022/09/14 10:47:23;;;;;;;6.70;6.00;;;24.90;65.60;;;;;;5053275;28;20473;-86
2022/09/14 10:50:02;;;;;;;5.10;4.60;;;25.10;65.60;;;;;;5052754;28;20550;-87
2022/09/14 10:52:41;;;;;;;5.70;5.20;;;25.20;65.00;;;;;;5021583;28;20455;-86
2022/09/14 10:55:30;;;;;;;6.47;5.50;;;25.30;64.50;;;;;;5034711;28;20436;-87
2022/09/14 10:58:08;;;;;;;5.90;4.53;;;25.30;63.60;;;;;;5037194;28;20879;-86
2022/09/14 11:00:45;;;;;;;5.43;4.37;;;25.60;63.80;;;;;;5003848;28;20483;-86
2022/09/14 11:03:39;;;;;;;5.60;5.10;;;25.60;63.10;;;;;;5050534;28;21088;-86
2022/09/14 11:06:18;;;;;;;5.93;5.33;;;25.70;63.20;;;;;;5015968;28;20905;-87
2022/09/14 11:08:53;;;;;;;5.37;4.87;;;25.80;63.00;;;;;;5051097;28;20467;-86
2022/09/14 11:11:42;;;;;;;6.50;5.63;;;25.80;62.90;;;;;;5023169;28;20567;-86
2022/09/14 11:14:44;;;;;;;6.50;5.90;;;25.80;63.00;;;;;;5049877;28;20454;-86
2022/09/14 11:17:32;;;;;;;6.27;5.67;;;25.80;62.60;;;;;;5031944;28;20437;-86
2022/09/14 11:20:09;;;;;;;7.50;5.53;;;25.80;62.10;;;;;;5050947;28;20578;-86
2022/09/14 11:22:43;;;;;;;6.93;6.23;;;25.80;61.90;;;;;;5033829;28;20448;-87
2022/09/14 11:25:16;;;;;;;6.57;6.00;;;25.80;62.60;;;;;;5041249;28;20441;-86
2022/09/14 11:27:46;;;;;;;5.83;5.23;;;25.80;62.40;;;;;;5031093;28;20448;-87
2022/09/14 11:30:17;;;;;;;6.40;5.27;;;25.80;61.70;;;;;;5033891;28;20984;-87
2022/09/14 11:32:48;;;;;;;6.80;5.80;;;25.60;62.30;;;;;;5017551;28;21060;-86
2022/09/14 11:35:20;;;;;;;5.83;5.30;;;25.40;62.70;;;;;;5049098;28;20450;-86
2022/09/14 11:37:52;;;;;;;6.90;6.30;;;25.40;63.00;;;;;;5020748;28;20510;-87
2022/09/14 11:40:27;;;;;;;7.30;6.60;;;25.60;63.30;;;;;;5051067;28;20991;-88
2022/09/14 11:42:59;;;;;;;6.73;6.10;;;25.50;62.60;;;;;;5019325;28;20451;-86
2022/09/14 11:45:30;;;;;;;6.77;5.47;;;25.50;62.70;;;;;;5015926;28;20469;-87
2022/09/14 11:48:04;;;;;;;7.10;6.50;;;25.60;62.50;;;;;;5034465;28;20459;-87
2022/09/14 11:50:34;;;;;;;7.50;6.80;;;25.80;62.80;;;;;;5041535;28;20461;-87
2022/09/14 11:53:11;;;;;;;6.97;6.37;;;25.80;62.30;;;;;;5032047;28;20449;-87
2022/09/14 11:55:44;;;;;;;6.70;6.10;;;25.70;62.10;;;;;;5048569;28;21117;-87
2022/09/14 11:58:18;;;;;;;8.10;6.60;;;25.60;62.50;;;;;;5032948;28;20453;-87
2022/09/14 12:01:01;;;;;;;9.70;6.97;;;25.70;63.30;;;;;;5006181;28;20586;-87
2022/09/14 12:03:54;;;;;;;7.13;6.43;;;25.70;62.80;;;;;;5050773;28;20454;-88
2022/09/14 12:06:58;;;;;;;7.73;7.03;;;25.80;62.50;;;;;;5008019;28;21058;-87
2022/09/14 12:09:50;;;;;;;7.30;6.60;;;25.90;62.70;;;;;;5049875;28;20487;-87
2022/09/14 12:12:53;;;;;;;7.93;6.43;;;26.00;62.20;;;;;;5032127;28;20446;-87
2022/09/14 12:15:33;;;;;;;8.73;7.80;;;25.90;62.50;;;;;;5048317;28;20451;-87
2022/09/14 12:18:21;;;;;;;8.77;7.00;;;26.00;62.40;;;;;;5050151;28;20452;-87
2022/09/14 12:20:51;;;;;;;7.10;6.40;;;26.20;62.30;;;;;;5009186;28;20530;-87
2022/09/14 12:23:24;;;;;;;7.63;6.80;;;26.20;62.00;;;;;;5050027;28;20449;-87
2022/09/14 12:26:26;;;;;;;7.83;7.00;;;26.20;62.40;;;;;;5048724;28;20460;-87
2022/09/14 12:28:57;;;;;;;7.23;6.63;;;26.20;62.00;;;;;;5049618;28;20445;-88
2022/09/14 12:31:54;;;;;;;7.77;6.97;;;26.20;62.20;;;;;;5032763;28;21015;-88
2022/09/14 12:34:23;;;;;;;7.03;6.43;;;26.20;62.20;;;;;;5030599;28;20471;-88
2022/09/14 12:36:59;;;;;;;7.43;6.73;;;26.20;61.70;;;;;;5049517;28;20453;-87
2022/09/14 12:39:29;;;;;;;10.17;7.20;;;26.30;62.60;;;;;;5015875;28;20480;-86
2022/09/14 12:42:02;;;;;;;8.27;7.47;;;26.40;62.00;;;;;;5050657;28;20484;-88
2022/09/14 12:44:33;;;;;;;8.10;7.00;;;26.40;61.90;;;;;;5023803;28;20446;-88
2022/09/14 12:47:34;;;;;;;7.70;6.63;;;26.30;62.30;;;;;;5033307;28;20845;-88
2022/09/14 12:50:08;;;;;;;7.80;6.80;;;26.30;62.20;;;;;;5018725;28;20511;-88
2022/09/14 12:52:42;;;;;;;7.53;6.83;;;26.40;61.70;;;;;;5039266;28;20531;-88
2022/09/14 12:55:40;;;;;;;8.60;7.77;;;26.50;61.20;;;;;;5044489;28;20477;-88
2022/09/14 12:58:19;;;;;;;8.93;7.70;;;26.50;61.50;;;;;;5050396;28;20453;-88
2022/09/14 13:00:56;;;;;;;8.40;7.63;;;26.50;61.50;;;;;;5038189;28;20475;-88
2022/09/14 13:03:51;;;;;;;8.93;7.73;;;26.50;61.60;;;;;;5025644;28;21080;-87
2022/09/14 13:06:18;;;;;;;7.70;6.90;;;26.50;61.20;;;;;;5019849;28;21745;-87
2022/09/14 13:08:47;;;;;;;8.77;7.90;;;26.50;61.30;;;;;;5032722;28;20450;-88